createdAt,value
2023-02-07T00:00:21.311Z,97.20
2023-02-07T00:02:48.849Z,97.10
2023-02-07T00:05:16.175Z,97.30
2023-02-07T00:07:43.241Z,97.40
2023-02-07T00:10:10.128Z,97.50
2023-02-07T00:12:36.734Z,97.50
2023-02-07T00:15:04.689Z,97.50
2023-02-07T00:17:32.888Z,97.40
2023-02-07T00:19:59.617Z,97.30
2023-02-07T00:22:26.276Z,97.50
2023-02-07T00:24:52.877Z,97.60
2023-02-07T00:27:19.576Z,97.70
2023-02-07T00:29:46.258Z,97.70
2023-02-07T00:32:13.319Z,97.60
2023-02-07T00:34:40.518Z,97.90
2023-02-07T00:37:07.339Z,97.70
2023-02-07T00:39:34.150Z,97.90
2023-02-07T00:42:00.794Z,97.90
2023-02-07T00:44:27.646Z,97.80
2023-02-07T00:46:54.355Z,97.80
2023-02-07T00:49:21.099Z,97.70
2023-02-07T00:51:47.761Z,97.60
2023-02-07T00:54:14.392Z,97.60
2023-02-07T00:56:41.152Z,97.70
2023-02-07T00:59:07.908Z,97.70
2023-02-07T01:01:34.637Z,97.80
2023-02-07T01:04:01.322Z,97.80
2023-02-07T01:06:29.482Z,97.90
2023-02-07T01:08:59.845Z,97.80
2023-02-07T01:11:27.098Z,97.80
2023-02-07T01:13:53.669Z,97.80
2023-02-07T01:16:21.664Z,98.00
2023-02-07T01:18:48.410Z,97.90
2023-02-07T01:21:16.338Z,97.90
2023-02-07T01:23:42.973Z,98.10
2023-02-07T01:26:09.808Z,98.20
2023-02-07T01:28:36.762Z,98.30
2023-02-07T01:31:08.607Z,98.10
2023-02-07T01:33:35.907Z,98.20
2023-02-07T01:36:09.250Z,98.10
2023-02-07T01:38:35.870Z,98.10
2023-02-07T01:41:02.698Z,98.00
2023-02-07T01:43:29.907Z,98.10
2023-02-07T01:45:56.725Z,98.00
2023-02-07T01:48:31.683Z,98.10
2023-02-07T01:51:00.836Z,98.20
2023-02-07T01:53:28.910Z,98.10
2023-02-07T01:55:57.030Z,98.00
2023-02-07T01:58:24.267Z,98.10
2023-02-07T02:00:54.100Z,97.90
2023-02-07T02:03:21.064Z,97.80
2023-02-07T02:05:48.288Z,97.80
2023-02-07T02:08:15.002Z,97.80
2023-02-07T02:10:41.809Z,97.90
2023-02-07T02:13:11.401Z,98.00
2023-02-07T02:15:43.346Z,97.80
2023-02-07T02:18:22.836Z,98.00
2023-02-07T02:20:54.045Z,97.80
2023-02-07T02:23:41.703Z,97.90
2023-02-07T02:26:11.495Z,97.80
2023-02-07T02:28:47.420Z,97.70
2023-02-07T02:31:26.598Z,97.90
2023-02-07T02:33:53.282Z,97.80
2023-02-07T02:36:25.932Z,98.00
2023-02-07T02:38:57.340Z,97.80
2023-02-07T02:41:27.208Z,97.70
2023-02-07T02:44:03.843Z,97.50
2023-02-07T02:46:35.276Z,97.50
2023-02-07T02:49:02.392Z,97.30
2023-02-07T02:51:29.906Z,97.30
2023-02-07T02:53:57.705Z,97.20
2023-02-07T02:56:33.451Z,97.20
2023-02-07T02:59:13.564Z,97.10
2023-02-07T03:01:40.361Z,97.10
2023-02-07T03:04:15.815Z,97.10
2023-02-07T03:06:45.696Z,97.20
2023-02-07T03:09:16.910Z,97.40
2023-02-07T03:11:55.350Z,97.40
2023-02-07T03:14:37.181Z,97.30
2023-02-07T03:17:14.423Z,97.40
2023-02-07T03:19:46.098Z,97.30
2023-02-07T03:22:14.470Z,97.50
2023-02-07T03:24:42.855Z,97.50
2023-02-07T03:27:11.481Z,97.60
2023-02-07T03:29:39.723Z,97.30
2023-02-07T03:32:07.599Z,97.20
2023-02-07T03:34:38.707Z,97.40
2023-02-07T03:37:12.715Z,97.30
2023-02-07T03:39:39.400Z,97.20
2023-02-07T03:42:26.474Z,97.10
2023-02-07T03:44:54.441Z,97.00
2023-02-07T03:47:21.146Z,97.10
2023-02-07T03:49:47.801Z,97.00
2023-02-07T03:52:14.527Z,97.20
2023-02-07T03:54:41.129Z,97.00
2023-02-07T03:57:07.823Z,97.00
2023-02-07T03:59:34.535Z,97.00
2023-02-07T04:02:02.327Z,97.10
2023-02-07T04:04:32.084Z,96.90
2023-02-07T04:06:58.937Z,97.30
2023-02-07T04:09:25.590Z,97.20
2023-02-07T04:11:52.348Z,97.30
2023-02-07T04:14:22.437Z,97.30
2023-02-07T04:16:49.379Z,99.90
2023-02-07T04:19:16.217Z,99.00
2023-02-07T04:21:43.024Z,99.90
2023-02-07T04:24:09.787Z,99.90
2023-02-07T04:26:36.525Z,99.90
2023-02-07T04:29:09.362Z,99.90
2023-02-07T04:31:37.694Z,99.90
2023-02-07T04:34:04.846Z,98.50
2023-02-07T04:36:31.700Z,97.80
2023-02-07T04:38:58.358Z,98.10
2023-02-07T04:41:25.189Z,97.80
2023-02-07T04:43:51.839Z,97.70
2023-02-07T04:46:18.613Z,97.80
2023-02-07T04:48:45.662Z,97.90
2023-02-07T04:51:12.440Z,97.90
2023-02-07T04:53:39.053Z,97.70
2023-02-07T04:56:05.928Z,97.80
2023-02-07T04:58:32.688Z,97.80
2023-02-07T05:00:59.463Z,97.90
2023-02-07T05:03:26.220Z,99.50
2023-02-07T05:05:53.647Z,99.90
2023-02-07T05:08:20.584Z,99.90
2023-02-07T05:10:47.427Z,99.90
2023-02-07T05:13:14.098Z,99.40
2023-02-07T05:15:40.920Z,99.40
2023-02-07T05:18:07.713Z,99.60
2023-02-07T05:20:34.451Z,99.90
2023-02-07T05:23:01.189Z,99.90
2023-02-07T05:25:27.929Z,99.90
2023-02-07T05:27:54.590Z,99.90
2023-02-07T05:30:21.330Z,99.90
2023-02-07T05:33:06.340Z,99.50
2023-02-07T05:35:37.705Z,98.80
2023-02-07T05:38:07.563Z,98.80
2023-02-07T05:40:34.860Z,99.30
2023-02-07T05:43:01.789Z,98.80
2023-02-07T05:45:28.621Z,97.70
2023-02-07T05:47:55.339Z,97.60
2023-02-07T05:50:22.106Z,97.80
2023-02-07T05:52:49.414Z,97.90
2023-02-07T05:55:16.180Z,98.30
2023-02-07T05:57:43.502Z,99.60
2023-02-07T06:00:12.958Z,99.90
2023-02-07T06:02:40.239Z,99.10
2023-02-07T06:05:07.997Z,99.30
2023-02-07T06:07:34.909Z,99.40
2023-02-07T06:10:02.062Z,99.90
2023-02-07T06:12:28.781Z,99.90
2023-02-07T06:14:55.513Z,99.90
2023-02-07T06:17:22.271Z,99.90
2023-02-07T06:19:49.019Z,99.90
2023-02-07T06:22:15.696Z,99.90
2023-02-07T06:24:42.311Z,99.90
2023-02-07T06:27:09.090Z,99.90
2023-02-07T06:29:36.032Z,99.90
2023-02-07T06:32:02.728Z,99.90
2023-02-07T06:34:29.396Z,99.90
2023-02-07T06:36:56.070Z,99.90
2023-02-07T06:39:22.849Z,99.90
2023-02-07T06:41:49.507Z,99.90
2023-02-07T06:44:16.140Z,99.90
2023-02-07T06:46:42.935Z,99.90
2023-02-07T06:49:10.462Z,99.90
2023-02-07T06:51:37.183Z,99.90
2023-02-07T06:54:09.297Z,99.90
2023-02-07T06:56:37.024Z,99.90
2023-02-07T06:59:05.675Z,99.90
2023-02-07T07:01:32.736Z,99.90
2023-02-07T07:03:59.534Z,99.90
2023-02-07T07:06:29.240Z,99.90
2023-02-07T07:08:56.199Z,99.90
2023-02-07T07:11:25.934Z,99.90
2023-02-07T07:13:52.708Z,99.90
2023-02-07T07:16:19.463Z,99.90
2023-02-07T07:18:46.368Z,99.50
2023-02-07T07:21:13.332Z,99.90
2023-02-07T07:23:40.087Z,99.90
2023-02-07T07:26:09.582Z,98.70
2023-02-07T07:28:36.272Z,99.10
2023-02-07T07:31:06.682Z,99.40
2023-02-07T07:33:33.938Z,99.90
2023-02-07T07:36:03.459Z,99.90
2023-02-07T07:38:30.809Z,99.00
2023-02-07T07:40:57.483Z,98.60
2023-02-07T07:43:24.588Z,98.40
2023-02-07T07:45:58.273Z,98.00
2023-02-07T07:48:25.037Z,98.20
2023-02-07T07:50:51.913Z,98.10
2023-02-07T07:53:19.100Z,98.10
2023-02-07T07:55:53.368Z,97.80
2023-02-07T07:58:20.439Z,97.50
2023-02-07T08:00:48.114Z,97.60
2023-02-07T08:03:15.421Z,97.70
2023-02-07T08:05:42.574Z,98.30
2023-02-07T08:08:09.320Z,98.50
2023-02-07T08:10:44.798Z,97.90
2023-02-07T08:13:11.642Z,97.50
2023-02-07T08:15:39.613Z,97.20
2023-02-07T08:18:06.535Z,97.30
2023-02-07T08:20:33.624Z,97.20
2023-02-07T08:23:06.465Z,97.50
2023-02-07T08:25:42.681Z,97.30
2023-02-07T08:28:19.032Z,97.30
2023-02-07T08:30:59.457Z,97.10
2023-02-07T08:33:28.309Z,97.00
2023-02-07T08:36:00.379Z,96.70
2023-02-07T08:38:27.304Z,96.50
2023-02-07T08:40:58.655Z,96.70
2023-02-07T08:43:25.658Z,96.60
2023-02-07T08:45:52.995Z,96.90
2023-02-07T08:48:20.496Z,96.40
2023-02-07T08:50:47.521Z,96.60
2023-02-07T08:53:17.730Z,96.70
2023-02-07T08:55:46.992Z,96.80
2023-02-07T08:58:18.995Z,96.80
2023-02-07T09:00:46.038Z,96.70
2023-02-07T09:03:18.940Z,96.00
2023-02-07T09:05:46.264Z,96.40
2023-02-07T09:11:11.788Z,96.60
2023-02-07T09:13:52.690Z,96.00
2023-02-07T09:19:12.033Z,95.80
2023-02-07T09:19:36.064Z,95.80
2023-02-07T09:24:41.651Z,95.60
2023-02-07T09:27:26.229Z,95.60
2023-02-07T09:29:59.122Z,95.60
2023-02-07T09:35:13.207Z,95.70
2023-02-07T09:37:49.654Z,95.50
2023-02-07T09:40:32.821Z,95.40
2023-02-07T09:43:09.519Z,94.90
2023-02-07T09:46:19.597Z,94.80
2023-02-07T09:48:56.262Z,95.00
2023-02-07T09:51:29.660Z,95.00
2023-02-07T09:55:02.972Z,94.80
2023-02-07T09:57:31.478Z,94.90
2023-02-07T10:00:19.105Z,94.90
2023-02-07T10:03:33.819Z,94.50
2023-02-07T10:06:18.886Z,94.60
2023-02-07T10:12:22.874Z,94.80
2023-02-07T10:15:27.746Z,95.20
2023-02-07T10:18:21.255Z,95.10
2023-02-07T10:20:54.580Z,94.90
2023-02-07T10:23:34.855Z,94.60
2023-02-07T10:26:35.422Z,94.70
2023-02-07T10:29:21.741Z,94.80
2023-02-07T10:32:01.900Z,94.90
2023-02-07T10:38:04.218Z,94.40
2023-02-07T10:41:20.859Z,93.90
2023-02-07T10:50:35.780Z,94.40
2023-02-07T11:07:15.170Z,92.80
2023-02-07T11:09:50.324Z,93.10
2023-02-07T11:18:28.285Z,92.80
2023-02-07T11:33:03.076Z,91.10
2023-02-07T11:35:30.365Z,89.10
2023-02-07T11:38:03.551Z,86.40
2023-02-07T20:47:26.081Z,75.40
2023-02-07T20:49:52.771Z,75.90
2023-02-07T20:52:19.523Z,75.60
2023-02-07T20:54:47.703Z,75.40
2023-02-07T20:57:14.362Z,75.00
2023-02-07T20:59:41.302Z,74.90
2023-02-07T21:02:08.160Z,74.80
2023-02-07T21:04:36.436Z,74.30
2023-02-07T21:07:03.950Z,74.20
2023-02-07T21:09:31.387Z,74.10
2023-02-07T21:11:58.375Z,74.30
2023-02-07T21:14:26.478Z,73.70
2023-02-07T21:16:54.035Z,73.30
2023-02-07T21:19:21.686Z,73.40
2023-02-07T21:21:49.532Z,73.20
2023-02-07T21:24:16.983Z,72.30
2023-02-07T21:26:44.059Z,72.10
2023-02-07T21:29:11.098Z,72.40
2023-02-07T21:31:37.937Z,71.90
2023-02-07T21:34:05.206Z,71.90
2023-02-07T21:36:34.198Z,71.90
2023-02-07T21:39:04.694Z,71.70
2023-02-07T21:41:31.750Z,71.50
2023-02-07T21:43:58.692Z,71.40
2023-02-07T21:46:27.944Z,71.80
2023-02-07T21:49:01.870Z,72.20
2023-02-07T21:51:29.775Z,72.50
2023-02-07T21:53:58.728Z,71.40
2023-02-07T21:56:26.649Z,72.00
2023-02-07T21:58:54.101Z,71.90
2023-02-07T22:01:22.076Z,71.80
2023-02-07T22:03:49.563Z,71.60
2023-02-07T22:06:17.176Z,71.30
2023-02-07T22:08:51.157Z,71.90
2023-02-07T22:11:18.861Z,71.90
2023-02-07T22:13:46.128Z,71.80
2023-02-07T22:16:13.706Z,71.80
2023-02-07T22:18:40.426Z,71.80
2023-02-07T22:21:08.739Z,72.00
2023-02-07T22:23:35.886Z,72.30
2023-02-07T22:26:02.560Z,72.00
2023-02-07T22:28:29.207Z,72.20
2023-02-07T22:30:55.914Z,72.20
2023-02-07T22:33:22.636Z,73.10
2023-02-07T22:35:49.281Z,73.00
2023-02-07T22:38:15.909Z,72.80
2023-02-07T22:40:43.237Z,73.00
2023-02-07T22:43:12.579Z,72.70
2023-02-07T22:45:39.788Z,72.80
2023-02-07T22:48:06.418Z,72.70
2023-02-07T22:50:33.136Z,72.50
2023-02-07T22:52:59.834Z,72.80
2023-02-07T22:55:26.531Z,72.90
2023-02-07T22:57:53.267Z,73.00
2023-02-07T23:00:19.957Z,73.10
2023-02-07T23:02:46.735Z,73.20
2023-02-07T23:05:13.589Z,73.30
2023-02-07T23:07:40.324Z,73.70
2023-02-07T23:10:08.069Z,73.60
2023-02-07T23:12:35.037Z,73.80
2023-02-07T23:15:01.684Z,73.70
2023-02-07T23:17:28.889Z,74.00
2023-02-07T23:19:55.873Z,74.00
2023-02-07T23:22:22.551Z,74.10
2023-02-07T23:24:49.692Z,74.10
2023-02-07T23:27:16.481Z,74.10
2023-02-07T23:29:43.119Z,74.20
2023-02-07T23:32:09.815Z,74.40
2023-02-07T23:34:36.408Z,74.50
2023-02-07T23:37:03.053Z,74.80
2023-02-07T23:39:29.774Z,75.00
2023-02-07T23:41:58.295Z,74.50
2023-02-07T23:44:24.998Z,74.60
2023-02-07T23:46:51.628Z,74.90
2023-02-07T23:49:18.311Z,74.80
2023-02-07T23:51:45.650Z,75.00
2023-02-07T23:54:12.631Z,74.90
2023-02-07T23:56:39.282Z,74.90
2023-02-07T23:59:06.712Z,75.20
